ADDS METAR Data INFO
IDs: Format: Raw Decoded Include TAF

Data at: 0735 UTC 21 Jul 2018

PADE 210653Z AUTO 04006KT 10SM CLR 16/13 A3016 RMK AO2 SLP212 T01610133 TSNO $
PADE 210553Z AUTO 02007KT 10SM CLR 17/13 A3016 RMK AO2 SLP214 T01670133 10167 20150 57007 TSNO $
PADE 210453Z AUTO 01009KT 10SM SCT049 16/13 A3017 RMK AO2 SLP216 T01560133 TSNO $
PADE 210353Z AUTO 02011KT 10SM FEW049 16/13 A3018 RMK AO2 SLP219 T01610128 TSNO $
PADE 210253Z AUTO 03012KT 10SM CLR 16/12 A3018 RMK AO2 SLP221 T01610122 56003 TSNO $
PADE 210153Z AUTO 04012KT 10SM FEW047 16/12 A3019 RMK AO2 SLP222 T01560117 TSNO $
PADE 210053Z AUTO 04013KT 10SM CLR 16/11 A3019 RMK AO2 SLP223 T01560111 TSNO $
PADE 202353Z AUTO 04011KT 10SM CLR 15/11 A3019 RMK AO2 SLP225 T01500111 10156 20128 58004 TSNO $
PADE 202253Z AUTO 02008KT 10SM FEW030 FEW060 16/11 A3020 RMK AO2 SLP227 T01560106 TSNO $
PADE 202228Z AUTO 03008KT 10SM FEW023 BKN030 OVC060 16/11 A3020 RMK AO2 T01560106 TSNO $
PADE 202153Z AUTO VRB06KT 10SM BKN023 OVC060 15/10 A3021 RMK AO2 SLP228 T01500100 TSNO $
PADE 202151Z AUTO 04007KT 10SM BKN023 OVC060 15/10 A3021 RMK AO2 TSNO $
PADE 202053Z AUTO 06004KT 10SM OVC060 14/11 A3021 RMK AO2 SLP230 T01440106 53003 TSNO
PADE 202011Z AUTO 05004KT 10SM FEW015 SCT025 OVC060 14/10 A3021 RMK AO2 T01390100 TSNO
PADE 201853Z AUTO 00000KT 10SM OVC023 13/09 A3021 RMK AO2 SLP229 T01330094 TSNO
PADE 201753Z AUTO 21004KT 10SM OVC021 13/09 A3020 RMK AO2 SLP227 T01280094 10128 20100 53002 TSNO
PADE 201653Z AUTO 20004KT 10SM OVC021 12/10 A3020 RMK AO2 SLP226 T01220100 TSNO $
PADE 201610Z AUTO 19003KT 10SM BKN023 OVC060 12/10 A3020 RMK AO2 T01170100 TSNO $
PADE 201553Z AUTO 20004KT 10SM SCT025 OVC060 12/10 A3020 RMK AO2 SLP226 T01170100 TSNO $
PADE 201453Z AUTO 19004KT 10SM FEW045 OVC060 11/10 A3020 RMK AO2 SLP226 T01110100 55000 TSNO $
PADE 201353Z AUTO 19006KT 10SM OVC043 11/10 A3020 RMK AO2 SLP226 T01060100 TSNO $
PADE 201253Z AUTO 19005KT 10SM OVC042 11/09 A3019 RMK AO2 SLP225 T01060094 TSNO $
PADE 201153Z AUTO 21006KT 10SM SCT042 OVC070 11/09 A3020 RMK AO2 SLP226 T01060094 10122 20106 58003 TSNO $
PADE 201053Z AUTO 21005KT 10SM OVC038 11/10 A3020 RMK AO2 SLP226 T01110100 TSNO $
PADE 201006Z AUTO 18005KT 10SM SCT028 OVC036 11/10 A3020 RMK AO2 T01110100 TSNO $
PADE 200944Z AUTO 18005KT 10SM BKN028 OVC038 12/10 A3021 RMK AO2 T01170100 TSNO $
PADE 200853Z AUTO 14005KT 10SM OVC032 12/10 A3021 RMK AO2 SLP229 T01170100 401220083 50000 TSNO $
PADE 200753Z AUTO 00000KT 10SM OVC030 12/10 A3021 RMK AO2 SLP229 T01220100 TSNO $
PADE 200653Z AUTO 09003KT 10SM FEW027 OVC033 12/10 A3020 RMK AO2 SLP228 T01170100 TSNO $
PADE 200651Z AUTO 10003KT 10SM SCT027 OVC033 12/10 A3020 RMK AO2 TSNO $
PADE 200553Z AUTO 09006KT 10SM OVC029 12/10 A3020 RMK AO2 SLP227 60000 T01170100 10122 20111 55001 TSNO $
PADE 200549Z AUTO 09007KT 10SM OVC029 12/10 A3020 RMK AO2 TSNO $
PADE 200453Z AUTO 08006KT 10SM SCT026 OVC032 12/09 A3020 RMK AO2 SLP227 T01170094 TSNO $
PADE 200412Z AUTO 07004KT 10SM OVC029 12/09 A3020 RMK AO2 T01170094 TSNO $
PADE 200402Z AUTO 07005KT 10SM OVC030 12/09 A3020 RMK AO2 T01170094 TSNO $
PADE 200353Z AUTO 05006KT 10SM BKN028 OVC036 12/09 A3020 RMK AO2 SLP228 T01170094 TSNO $
PADE 200253Z AUTO 36005KT 10SM SCT018 BKN026 OVC030 12/09 A3021 RMK AO2 SLP229 60000 T01170089 53004 TSNO $
PADE 200153Z AUTO 36005KT 10SM OVC027 12/09 A3020 RMK AO2 SLP227 T01170089 TSNO $
PADE 200053Z AUTO 32005KT 10SM BKN017 BKN024 OVC031 12/08 A3020 RMK AO2 RAB2354E20 SLP225 P0000 T01170083 TSNO $
PADE 192353Z AUTO 28007KT 8SM SCT016 BKN021 OVC027 12/08 A3020 RMK AO2 RAB06E15 SLP225 P0000 60000 T01170083 10117 20094 51008 TSNO $
PADE 192253Z AUTO 30005KT 10SM OVC017 12/09 A3019 RMK AO2 SLP223 T01170089 TSNO $
PADE 192206Z AUTO 23006KT 10SM BKN018 OVC038 11/09 A3019 RMK AO2 T01110089 TSNO $
PADE 192145Z AUTO 25005KT 10SM BKN021 BKN029 OVC034 11/09 A3018 RMK AO2 T01110089 TSNO $
PADE 192053Z AUTO 25006KT 10SM OVC033 11/08 A3017 RMK AO2 SLP217 60000 T01060083 53014 TSNO $
PADE 191953Z AUTO 23009KT 10SM FEW011 OVC032 10/08 A3016 RMK AO2 RAE1854 SLP212 P0000 T01000083 TSNO $